sensor_id;sensor_type;location;lat;lon;timestamp;pressure;altitude;pressure_sealevel;temperature
20736;BMP180;10528;52.124;5.196;2023-05-10T00:00:26;100735.00;;;20.10
20736;BMP180;10528;52.124;5.196;2023-05-10T00:02:52;100746.00;;;20.10
20736;BMP180;10528;52.124;5.196;2023-05-10T00:05:20;100738.00;;;20.10
20736;BMP180;10528;52.124;5.196;2023-05-10T00:07:47;100732.00;;;20.10
20736;BMP180;10528;52.124;5.196;2023-05-10T00:10:13;100732.00;;;20.10
20736;BMP180;10528;52.124;5.196;2023-05-10T00:12:41;100722.00;;;20.10
20736;BMP180;10528;52.124;5.196;2023-05-10T00:15:09;100714.00;;;20.10
20736;BMP180;10528;52.124;5.196;2023-05-10T00:17:36;100718.00;;;20.10
20736;BMP180;10528;52.124;5.196;2023-05-10T00:20:03;100724.00;;;20.10
20736;BMP180;10528;52.124;5.196;2023-05-10T00:22:32;100722.00;;;20.00
20736;BMP180;10528;52.124;5.196;2023-05-10T00:24:59;100731.00;;;20.00
20736;BMP180;10528;52.124;5.196;2023-05-10T00:27:26;100732.00;;;20.00
20736;BMP180;10528;52.124;5.196;2023-05-10T00:29:53;100730.00;;;20.00
20736;BMP180;10528;52.124;5.196;2023-05-10T00:32:19;100733.00;;;20.00
20736;BMP180;10528;52.124;5.196;2023-05-10T00:34:47;100730.00;;;20.00
20736;BMP180;10528;52.124;5.196;2023-05-10T00:37:14;100726.00;;;20.00
20736;BMP180;10528;52.124;5.196;2023-05-10T00:39:41;100737.00;;;20.00
20736;BMP180;10528;52.124;5.196;2023-05-10T00:42:08;100729.00;;;20.00
20736;BMP180;10528;52.124;5.196;2023-05-10T00:44:35;100724.00;;;20.00
20736;BMP180;10528;52.124;5.196;2023-05-10T00:47:02;100724.00;;;20.00
20736;BMP180;10528;52.124;5.196;2023-05-10T00:49:29;100726.00;;;20.00
20736;BMP180;10528;52.124;5.196;2023-05-10T00:51:56;100735.00;;;20.00
20736;BMP180;10528;52.124;5.196;2023-05-10T00:54:24;100727.00;;;20.00
20736;BMP180;10528;52.124;5.196;2023-05-10T00:56:51;100733.00;;;19.90
20736;BMP180;10528;52.124;5.196;2023-05-10T00:59:19;100740.00;;;19.90
20736;BMP180;10528;52.124;5.196;2023-05-10T01:01:46;100737.00;;;19.90
20736;BMP180;10528;52.124;5.196;2023-05-10T01:04:15;100736.00;;;19.90
20736;BMP180;10528;52.124;5.196;2023-05-10T01:06:42;100743.00;;;19.90
20736;BMP180;10528;52.124;5.196;2023-05-10T01:09:10;100745.00;;;19.90
20736;BMP180;10528;52.124;5.196;2023-05-10T01:11:40;100729.00;;;19.90
20736;BMP180;10528;52.124;5.196;2023-05-10T01:14:07;100731.00;;;19.90
20736;BMP180;10528;52.124;5.196;2023-05-10T01:16:40;100740.00;;;19.90
20736;BMP180;10528;52.124;5.196;2023-05-10T01:19:18;100738.00;;;19.90
20736;BMP180;10528;52.124;5.196;2023-05-10T01:28:47;100740.00;;;19.90
20736;BMP180;10528;52.124;5.196;2023-05-10T01:34:16;100732.00;;;19.90
20736;BMP180;10528;52.124;5.196;2023-05-10T01:37:06;100737.00;;;19.90
20736;BMP180;10528;52.124;5.196;2023-05-10T01:39:55;100728.00;;;19.90
20736;BMP180;10528;52.124;5.196;2023-05-10T01:42:29;100739.00;;;19.90
20736;BMP180;10528;52.124;5.196;2023-05-10T01:45:50;100729.00;;;19.90
20736;BMP180;10528;52.124;5.196;2023-05-10T01:48:26;100735.00;;;19.90
20736;BMP180;10528;52.124;5.196;2023-05-10T01:50:55;100734.00;;;19.90
20736;BMP180;10528;52.124;5.196;2023-05-10T01:53:24;100742.00;;;19.90
20736;BMP180;10528;52.124;5.196;2023-05-10T01:55:53;100746.00;;;19.90
20736;BMP180;10528;52.124;5.196;2023-05-10T01:58:29;100742.00;;;19.90
20736;BMP180;10528;52.124;5.196;2023-05-10T02:01:00;100748.00;;;19.90
20736;BMP180;10528;52.124;5.196;2023-05-10T02:03:29;100744.00;;;19.90
20736;BMP180;10528;52.124;5.196;2023-05-10T02:05:57;100749.00;;;19.90
20736;BMP180;10528;52.124;5.196;2023-05-10T02:08:26;100743.00;;;19.90
20736;BMP180;10528;52.124;5.196;2023-05-10T02:10:56;100745.00;;;19.90
20736;BMP180;10528;52.124;5.196;2023-05-10T02:13:25;100746.00;;;19.90
20736;BMP180;10528;52.124;5.196;2023-05-10T02:15:54;100746.00;;;19.90
20736;BMP180;10528;52.124;5.196;2023-05-10T02:18:23;100756.00;;;19.90
20736;BMP180;10528;52.124;5.196;2023-05-10T02:20:52;100762.00;;;19.80
20736;BMP180;10528;52.124;5.196;2023-05-10T02:23:21;100764.00;;;19.80
20736;BMP180;10528;52.124;5.196;2023-05-10T02:25:49;100766.00;;;19.70
20736;BMP180;10528;52.124;5.196;2023-05-10T02:28:21;100769.00;;;19.70
20736;BMP180;10528;52.124;5.196;2023-05-10T02:30:51;100755.00;;;19.70
20736;BMP180;10528;52.124;5.196;2023-05-10T02:33:20;100762.00;;;19.70
20736;BMP180;10528;52.124;5.196;2023-05-10T02:35:50;100766.00;;;19.70
20736;BMP180;10528;52.124;5.196;2023-05-10T02:38:20;100769.00;;;19.70
20736;BMP180;10528;52.124;5.196;2023-05-10T02:40:48;100770.00;;;19.60
20736;BMP180;10528;52.124;5.196;2023-05-10T02:43:18;100772.00;;;19.60
20736;BMP180;10528;52.124;5.196;2023-05-10T02:45:47;100777.00;;;19.60
20736;BMP180;10528;52.124;5.196;2023-05-10T02:48:15;100775.00;;;19.60
20736;BMP180;10528;52.124;5.196;2023-05-10T02:50:47;100779.00;;;19.60
20736;BMP180;10528;52.124;5.196;2023-05-10T02:53:41;100777.00;;;19.60
20736;BMP180;10528;52.124;5.196;2023-05-10T02:56:16;100781.00;;;19.60
20736;BMP180;10528;52.124;5.196;2023-05-10T02:58:43;100787.00;;;19.60
20736;BMP180;10528;52.124;5.196;2023-05-10T03:01:10;100786.00;;;19.60
20736;BMP180;10528;52.124;5.196;2023-05-10T03:03:37;100790.00;;;19.60
20736;BMP180;10528;52.124;5.196;2023-05-10T03:06:04;100786.00;;;19.60
20736;BMP180;10528;52.124;5.196;2023-05-10T03:08:31;100787.00;;;19.60
20736;BMP180;10528;52.124;5.196;2023-05-10T03:11:16;100789.00;;;19.50
20736;BMP180;10528;52.124;5.196;2023-05-10T03:16:36;100785.00;;;19.60
20736;BMP180;10528;52.124;5.196;2023-05-10T03:19:17;100782.00;;;19.60
20736;BMP180;10528;52.124;5.196;2023-05-10T03:21:52;100782.00;;;19.60
20736;BMP180;10528;52.124;5.196;2023-05-10T03:24:27;100780.00;;;19.60
20736;BMP180;10528;52.124;5.196;2023-05-10T03:27:00;100774.00;;;19.60
20736;BMP180;10528;52.124;5.196;2023-05-10T03:29:31;100786.00;;;19.60
20736;BMP180;10528;52.124;5.196;2023-05-10T03:31:59;100784.00;;;19.60
20736;BMP180;10528;52.124;5.196;2023-05-10T03:34:30;100789.00;;;19.60
20736;BMP180;10528;52.124;5.196;2023-05-10T03:36:58;100787.00;;;19.60
20736;BMP180;10528;52.124;5.196;2023-05-10T03:39:27;100785.00;;;19.60
20736;BMP180;10528;52.124;5.196;2023-05-10T03:41:57;100782.00;;;19.60
20736;BMP180;10528;52.124;5.196;2023-05-10T03:44:24;100785.00;;;19.60
20736;BMP180;10528;52.124;5.196;2023-05-10T03:46:51;100794.00;;;19.60
20736;BMP180;10528;52.124;5.196;2023-05-10T03:49:18;100782.00;;;19.60
20736;BMP180;10528;52.124;5.196;2023-05-10T03:51:45;100785.00;;;19.60
20736;BMP180;10528;52.124;5.196;2023-05-10T03:54:12;100791.00;;;19.60
20736;BMP180;10528;52.124;5.196;2023-05-10T03:56:38;100794.00;;;19.60
20736;BMP180;10528;52.124;5.196;2023-05-10T03:59:05;100793.00;;;19.60
20736;BMP180;10528;52.124;5.196;2023-05-10T04:01:34;100795.00;;;19.60
20736;BMP180;10528;52.124;5.196;2023-05-10T04:04:02;100797.00;;;19.60
20736;BMP180;10528;52.124;5.196;2023-05-10T04:06:30;100798.00;;;19.60
20736;BMP180;10528;52.124;5.196;2023-05-10T04:08:58;100791.00;;;19.60
20736;BMP180;10528;52.124;5.196;2023-05-10T04:11:30;100793.00;;;19.60
20736;BMP180;10528;52.124;5.196;2023-05-10T04:13:57;100789.00;;;19.60
20736;BMP180;10528;52.124;5.196;2023-05-10T04:16:24;100801.00;;;19.60
20736;BMP180;10528;52.124;5.196;2023-05-10T04:18:51;100795.00;;;19.60
20736;BMP180;10528;52.124;5.196;2023-05-10T04:21:18;100795.00;;;19.60
20736;BMP180;10528;52.124;5.196;2023-05-10T04:23:45;100801.00;;;19.60
20736;BMP180;10528;52.124;5.196;2023-05-10T04:26:12;100797.00;;;19.60
20736;BMP180;10528;52.124;5.196;2023-05-10T04:28:39;100789.00;;;19.60
20736;BMP180;10528;52.124;5.196;2023-05-10T04:31:08;100799.00;;;19.60
20736;BMP180;10528;52.124;5.196;2023-05-10T04:33:36;100800.00;;;19.60
20736;BMP180;10528;52.124;5.196;2023-05-10T04:36:04;100805.00;;;19.60
20736;BMP180;10528;52.124;5.196;2023-05-10T04:38:31;100801.00;;;19.60
20736;BMP180;10528;52.124;5.196;2023-05-10T04:41:09;100800.00;;;19.60
20736;BMP180;10528;52.124;5.196;2023-05-10T04:43:37;100797.00;;;19.60
20736;BMP180;10528;52.124;5.196;2023-05-10T04:46:05;100811.00;;;19.60
20736;BMP180;10528;52.124;5.196;2023-05-10T04:48:32;100808.00;;;19.60
20736;BMP180;10528;52.124;5.196;2023-05-10T04:51:00;100807.00;;;19.60
20736;BMP180;10528;52.124;5.196;2023-05-10T04:53:26;100806.00;;;19.60
20736;BMP180;10528;52.124;5.196;2023-05-10T04:55:53;100811.00;;;19.60
20736;BMP180;10528;52.124;5.196;2023-05-10T04:58:20;100814.00;;;19.60
20736;BMP180;10528;52.124;5.196;2023-05-10T05:00:47;100806.00;;;19.60
20736;BMP180;10528;52.124;5.196;2023-05-10T05:03:14;100820.00;;;19.60
20736;BMP180;10528;52.124;5.196;2023-05-10T05:05:42;100818.00;;;19.60
20736;BMP180;10528;52.124;5.196;2023-05-10T05:08:09;100822.00;;;19.60
20736;BMP180;10528;52.124;5.196;2023-05-10T05:10:36;100824.00;;;19.60
20736;BMP180;10528;52.124;5.196;2023-05-10T05:13:03;100831.00;;;19.60
20736;BMP180;10528;52.124;5.196;2023-05-10T05:15:30;100831.00;;;19.60
20736;BMP180;10528;52.124;5.196;2023-05-10T05:17:57;100835.00;;;19.60
20736;BMP180;10528;52.124;5.196;2023-05-10T05:20:24;100844.00;;;19.60
20736;BMP180;10528;52.124;5.196;2023-05-10T05:22:51;100839.00;;;19.60
20736;BMP180;10528;52.124;5.196;2023-05-10T05:25:17;100844.00;;;19.60
20736;BMP180;10528;52.124;5.196;2023-05-10T05:27:44;100848.00;;;19.50
20736;BMP180;10528;52.124;5.196;2023-05-10T05:30:11;100853.00;;;19.50
20736;BMP180;10528;52.124;5.196;2023-05-10T05:32:39;100858.00;;;19.50
20736;BMP180;10528;52.124;5.196;2023-05-10T05:35:07;100846.00;;;19.50
20736;BMP180;10528;52.124;5.196;2023-05-10T05:37:34;100851.00;;;19.50
20736;BMP180;10528;52.124;5.196;2023-05-10T05:40:01;100852.00;;;19.50
20736;BMP180;10528;52.124;5.196;2023-05-10T05:42:30;100853.00;;;19.50
20736;BMP180;10528;52.124;5.196;2023-05-10T05:44:57;100863.00;;;19.50
20736;BMP180;10528;52.124;5.196;2023-05-10T05:47:24;100875.00;;;19.50
20736;BMP180;10528;52.124;5.196;2023-05-10T05:49:51;100866.00;;;19.50
20736;BMP180;10528;52.124;5.196;2023-05-10T05:52:18;100863.00;;;19.50
20736;BMP180;10528;52.124;5.196;2023-05-10T05:54:45;100874.00;;;19.50
20736;BMP180;10528;52.124;5.196;2023-05-10T05:57:12;100877.00;;;19.50
20736;BMP180;10528;52.124;5.196;2023-05-10T05:59:38;100869.00;;;19.50
20736;BMP180;10528;52.124;5.196;2023-05-10T06:02:09;100869.00;;;19.50
20736;BMP180;10528;52.124;5.196;2023-05-10T06:04:36;100873.00;;;19.50
20736;BMP180;10528;52.124;5.196;2023-05-10T06:07:03;100882.00;;;19.50
20736;BMP180;10528;52.124;5.196;2023-05-10T06:09:29;100877.00;;;19.50
20736;BMP180;10528;52.124;5.196;2023-05-10T06:11:57;100883.00;;;19.50
20736;BMP180;10528;52.124;5.196;2023-05-10T06:14:23;100881.00;;;19.60
20736;BMP180;10528;52.124;5.196;2023-05-10T06:16:50;100894.00;;;19.60
20736;BMP180;10528;52.124;5.196;2023-05-10T06:19:17;100893.00;;;19.60
20736;BMP180;10528;52.124;5.196;2023-05-10T06:21:44;100898.00;;;19.60
20736;BMP180;10528;52.124;5.196;2023-05-10T06:24:11;100894.00;;;19.60
20736;BMP180;10528;52.124;5.196;2023-05-10T06:26:38;100894.00;;;19.60
20736;BMP180;10528;52.124;5.196;2023-05-10T06:29:04;100894.00;;;19.60
20736;BMP180;10528;52.124;5.196;2023-05-10T06:31:31;100899.00;;;19.60
20736;BMP180;10528;52.124;5.196;2023-05-10T06:33:58;100901.00;;;19.60
20736;BMP180;10528;52.124;5.196;2023-05-10T06:36:25;100904.00;;;19.60
20736;BMP180;10528;52.124;5.196;2023-05-10T06:38:53;100893.00;;;19.60
20736;BMP180;10528;52.124;5.196;2023-05-10T06:41:20;100892.00;;;19.60
20736;BMP180;10528;52.124;5.196;2023-05-10T06:43:50;100895.00;;;19.60
20736;BMP180;10528;52.124;5.196;2023-05-10T06:46:17;100899.00;;;19.60
20736;BMP180;10528;52.124;5.196;2023-05-10T06:48:44;100903.00;;;19.70
20736;BMP180;10528;52.124;5.196;2023-05-10T06:51:11;100898.00;;;19.70
20736;BMP180;10528;52.124;5.196;2023-05-10T06:53:38;100902.00;;;19.70
20736;BMP180;10528;52.124;5.196;2023-05-10T06:56:05;100904.00;;;19.70
20736;BMP180;10528;52.124;5.196;2023-05-10T06:58:32;100901.00;;;19.70
20736;BMP180;10528;52.124;5.196;2023-05-10T07:01:04;100919.00;;;19.70
20736;BMP180;10528;52.124;5.196;2023-05-10T07:03:32;100912.00;;;19.80
20736;BMP180;10528;52.124;5.196;2023-05-10T07:06:03;100916.00;;;19.80
20736;BMP180;10528;52.124;5.196;2023-05-10T07:08:31;100914.00;;;19.80
20736;BMP180;10528;52.124;5.196;2023-05-10T07:11:05;100915.00;;;19.80
20736;BMP180;10528;52.124;5.196;2023-05-10T07:13:34;100916.00;;;19.80
20736;BMP180;10528;52.124;5.196;2023-05-10T07:16:01;100923.00;;;19.80
20736;BMP180;10528;52.124;5.196;2023-05-10T07:18:28;100913.00;;;19.90
20736;BMP180;10528;52.124;5.196;2023-05-10T07:20:57;100917.00;;;19.90
20736;BMP180;10528;52.124;5.196;2023-05-10T07:23:24;100922.00;;;19.90
20736;BMP180;10528;52.124;5.196;2023-05-10T07:25:51;100930.00;;;19.90
20736;BMP180;10528;52.124;5.196;2023-05-10T07:28:19;100932.00;;;19.90
20736;BMP180;10528;52.124;5.196;2023-05-10T07:30:46;100935.00;;;19.90
20736;BMP180;10528;52.124;5.196;2023-05-10T07:33:14;100943.00;;;19.90
20736;BMP180;10528;52.124;5.196;2023-05-10T07:35:43;100934.00;;;19.90
20736;BMP180;10528;52.124;5.196;2023-05-10T07:38:10;100947.00;;;19.90
20736;BMP180;10528;52.124;5.196;2023-05-10T07:40:38;100952.00;;;19.90
20736;BMP180;10528;52.124;5.196;2023-05-10T07:43:05;100939.00;;;19.90
20736;BMP180;10528;52.124;5.196;2023-05-10T07:45:33;100948.00;;;20.00
20736;BMP180;10528;52.124;5.196;2023-05-10T07:48:01;100956.00;;;20.00
20736;BMP180;10528;52.124;5.196;2023-05-10T07:50:28;100948.00;;;20.00
20736;BMP180;10528;52.124;5.196;2023-05-10T07:52:54;100945.00;;;20.00
20736;BMP180;10528;52.124;5.196;2023-05-10T07:55:21;100945.00;;;20.00
20736;BMP180;10528;52.124;5.196;2023-05-10T07:57:48;100950.00;;;20.00
20736;BMP180;10528;52.124;5.196;2023-05-10T08:00:20;100941.00;;;20.10
20736;BMP180;10528;52.124;5.196;2023-05-10T08:02:47;100949.00;;;20.10
20736;BMP180;10528;52.124;5.196;2023-05-10T08:05:15;100960.00;;;20.20
20736;BMP180;10528;52.124;5.196;2023-05-10T08:07:42;100959.00;;;20.20
20736;BMP180;10528;52.124;5.196;2023-05-10T08:10:10;100965.00;;;20.20
20736;BMP180;10528;52.124;5.196;2023-05-10T08:12:38;100963.00;;;20.20
20736;BMP180;10528;52.124;5.196;2023-05-10T08:15:06;100953.00;;;20.30
20736;BMP180;10528;52.124;5.196;2023-05-10T08:17:33;100964.00;;;20.30
20736;BMP180;10528;52.124;5.196;2023-05-10T08:20:01;100968.00;;;20.30
20736;BMP180;10528;52.124;5.196;2023-05-10T08:22:28;100972.00;;;20.40
20736;BMP180;10528;52.124;5.196;2023-05-10T08:24:54;100972.00;;;20.40
20736;BMP180;10528;52.124;5.196;2023-05-10T08:27:21;100975.00;;;20.40
20736;BMP180;10528;52.124;5.196;2023-05-10T08:29:48;100976.00;;;20.40
20736;BMP180;10528;52.124;5.196;2023-05-10T08:32:17;100984.00;;;20.40
20736;BMP180;10528;52.124;5.196;2023-05-10T08:34:44;100985.00;;;20.40
20736;BMP180;10528;52.124;5.196;2023-05-10T08:37:11;100989.00;;;20.40
20736;BMP180;10528;52.124;5.196;2023-05-10T08:39:40;100998.00;;;20.40
20736;BMP180;10528;52.124;5.196;2023-05-10T08:42:08;101001.00;;;20.40
20736;BMP180;10528;52.124;5.196;2023-05-10T08:44:36;101006.00;;;20.40
20736;BMP180;10528;52.124;5.196;2023-05-10T08:47:06;100995.00;;;20.40
20736;BMP180;10528;52.124;5.196;2023-05-10T08:49:34;101000.00;;;20.40
20736;BMP180;10528;52.124;5.196;2023-05-10T08:52:05;101003.00;;;20.40
20736;BMP180;10528;52.124;5.196;2023-05-10T08:54:34;101011.00;;;20.50
20736;BMP180;10528;52.124;5.196;2023-05-10T08:57:01;101009.00;;;20.50
20736;BMP180;10528;52.124;5.196;2023-05-10T08:59:28;101014.00;;;20.60
20736;BMP180;10528;52.124;5.196;2023-05-10T09:01:59;101013.00;;;20.60
20736;BMP180;10528;52.124;5.196;2023-05-10T09:04:29;101015.00;;;20.70
20736;BMP180;10528;52.124;5.196;2023-05-10T09:06:57;101019.00;;;20.70
20736;BMP180;10528;52.124;5.196;2023-05-10T09:09:24;101026.00;;;20.70
20736;BMP180;10528;52.124;5.196;2023-05-10T09:11:53;101021.00;;;20.80
20736;BMP180;10528;52.124;5.196;2023-05-10T09:14:21;101016.00;;;20.80
20736;BMP180;10528;52.124;5.196;2023-05-10T09:16:49;101024.00;;;20.80
20736;BMP180;10528;52.124;5.196;2023-05-10T09:19:16;101020.00;;;20.80
20736;BMP180;10528;52.124;5.196;2023-05-10T09:21:43;101034.00;;;20.80
20736;BMP180;10528;52.124;5.196;2023-05-10T09:24:10;101024.00;;;20.80
20736;BMP180;10528;52.124;5.196;2023-05-10T09:26:48;101031.00;;;20.80
20736;BMP180;10528;52.124;5.196;2023-05-10T09:29:15;101024.00;;;20.80
20736;BMP180;10528;52.124;5.196;2023-05-10T09:31:51;101036.00;;;20.80
20736;BMP180;10528;52.124;5.196;2023-05-10T09:34:30;101038.00;;;20.90
20736;BMP180;10528;52.124;5.196;2023-05-10T09:37:01;101039.00;;;20.90
20736;BMP180;10528;52.124;5.196;2023-05-10T09:39:33;101039.00;;;21.00
20736;BMP180;10528;52.124;5.196;2023-05-10T09:42:09;101041.00;;;21.10
20736;BMP180;10528;52.124;5.196;2023-05-10T09:44:37;101039.00;;;21.10
20736;BMP180;10528;52.124;5.196;2023-05-10T09:47:05;101039.00;;;21.20
20736;BMP180;10528;52.124;5.196;2023-05-10T09:49:31;101045.00;;;21.30
20736;BMP180;10528;52.124;5.196;2023-05-10T09:52:05;101041.00;;;21.30
20736;BMP180;10528;52.124;5.196;2023-05-10T09:54:33;101042.00;;;21.30
20736;BMP180;10528;52.124;5.196;2023-05-10T09:57:00;101049.00;;;21.40
20736;BMP180;10528;52.124;5.196;2023-05-10T09:59:28;101055.00;;;21.40
20736;BMP180;10528;52.124;5.196;2023-05-10T10:02:00;101055.00;;;21.40
20736;BMP180;10528;52.124;5.196;2023-05-10T10:04:27;101049.00;;;21.40
20736;BMP180;10528;52.124;5.196;2023-05-10T10:07:03;101054.00;;;21.40
20736;BMP180;10528;52.124;5.196;2023-05-10T10:09:31;101048.00;;;21.40
20736;BMP180;10528;52.124;5.196;2023-05-10T10:12:02;101061.00;;;21.30
20736;BMP180;10528;52.124;5.196;2023-05-10T10:14:30;101069.00;;;21.30
20736;BMP180;10528;52.124;5.196;2023-05-10T10:17:00;101059.00;;;21.40
20736;BMP180;10528;52.124;5.196;2023-05-10T10:19:35;101057.00;;;21.40
20736;BMP180;10528;52.124;5.196;2023-05-10T10:22:03;101072.00;;;21.40
20736;BMP180;10528;52.124;5.196;2023-05-10T10:24:30;101066.00;;;21.40
20736;BMP180;10528;52.124;5.196;2023-05-10T10:27:09;101067.00;;;21.40
20736;BMP180;10528;52.124;5.196;2023-05-10T10:35:55;101075.00;;;21.40
20736;BMP180;10528;52.124;5.196;2023-05-10T10:38:24;101058.00;;;21.40
20736;BMP180;10528;52.124;5.196;2023-05-10T10:41:10;101071.00;;;21.30
20736;BMP180;10528;52.124;5.196;2023-05-10T10:43:38;101059.00;;;21.30
20736;BMP180;10528;52.124;5.196;2023-05-10T10:46:16;101073.00;;;21.40
20736;BMP180;10528;52.124;5.196;2023-05-10T10:51:38;101076.00;;;21.50
20736;BMP180;10528;52.124;5.196;2023-05-10T10:54:12;101079.00;;;21.60
20736;BMP180;10528;52.124;5.196;2023-05-10T10:56:38;101076.00;;;21.70
20736;BMP180;10528;52.124;5.196;2023-05-10T10:59:05;101076.00;;;21.80
20736;BMP180;10528;52.124;5.196;2023-05-10T11:01:34;101071.00;;;21.90
20736;BMP180;10528;52.124;5.196;2023-05-10T11:06:33;101076.00;;;22.10
20736;BMP180;10528;52.124;5.196;2023-05-10T11:09:12;101069.00;;;22.10
20736;BMP180;10528;52.124;5.196;2023-05-10T11:11:52;101073.00;;;22.10
20736;BMP180;10528;52.124;5.196;2023-05-10T11:14:22;101081.00;;;22.20
20736;BMP180;10528;52.124;5.196;2023-05-10T11:16:49;101087.00;;;22.20
20736;BMP180;10528;52.124;5.196;2023-05-10T11:19:17;101078.00;;;22.30
20736;BMP180;10528;52.124;5.196;2023-05-10T11:22:12;101089.00;;;22.30
20736;BMP180;10528;52.124;5.196;2023-05-10T11:24:57;101087.00;;;22.30
20736;BMP180;10528;52.124;5.196;2023-05-10T11:27:25;101089.00;;;22.30
20736;BMP180;10528;52.124;5.196;2023-05-10T11:29:52;101084.00;;;22.30
20736;BMP180;10528;52.124;5.196;2023-05-10T11:32:19;101093.00;;;22.30
20736;BMP180;10528;52.124;5.196;2023-05-10T11:34:48;101093.00;;;22.30
20736;BMP180;10528;52.124;5.196;2023-05-10T11:37:15;101099.00;;;22.30
20736;BMP180;10528;52.124;5.196;2023-05-10T11:39:46;101090.00;;;22.30
20736;BMP180;10528;52.124;5.196;2023-05-10T11:42:15;101088.00;;;22.30
20736;BMP180;10528;52.124;5.196;2023-05-10T11:44:45;101077.00;;;22.30
20736;BMP180;10528;52.124;5.196;2023-05-10T11:47:13;101091.00;;;22.30
20736;BMP180;10528;52.124;5.196;2023-05-10T11:49:44;101089.00;;;22.30
20736;BMP180;10528;52.124;5.196;2023-05-10T11:52:11;101084.00;;;22.40
20736;BMP180;10528;52.124;5.196;2023-05-10T11:54:44;101100.00;;;22.50
20736;BMP180;10528;52.124;5.196;2023-05-10T11:57:12;101091.00;;;22.60
20736;BMP180;10528;52.124;5.196;2023-05-10T11:59:39;101103.00;;;22.60
20736;BMP180;10528;52.124;5.196;2023-05-10T12:02:09;101102.00;;;22.70
20736;BMP180;10528;52.124;5.196;2023-05-10T12:04:37;101094.00;;;22.80
20736;BMP180;10528;52.124;5.196;2023-05-10T12:07:04;101101.00;;;22.90
20736;BMP180;10528;52.124;5.196;2023-05-10T12:09:31;101106.00;;;23.00
20736;BMP180;10528;52.124;5.196;2023-05-10T12:12:09;101103.00;;;23.00
20736;BMP180;10528;52.124;5.196;2023-05-10T12:14:36;101101.00;;;23.10
20736;BMP180;10528;52.124;5.196;2023-05-10T12:17:03;101105.00;;;23.20
20736;BMP180;10528;52.124;5.196;2023-05-10T12:19:41;101103.00;;;23.30
20736;BMP180;10528;52.124;5.196;2023-05-10T12:22:07;101107.00;;;23.30
20736;BMP180;10528;52.124;5.196;2023-05-10T12:24:36;101103.00;;;23.30
20736;BMP180;10528;52.124;5.196;2023-05-10T12:27:05;101100.00;;;23.30
20736;BMP180;10528;52.124;5.196;2023-05-10T12:29:34;101099.00;;;23.30
20736;BMP180;10528;52.124;5.196;2023-05-10T12:32:02;101104.00;;;23.30
20736;BMP180;10528;52.124;5.196;2023-05-10T12:34:35;101112.00;;;23.30
20736;BMP180;10528;52.124;5.196;2023-05-10T12:37:05;101112.00;;;23.20
20736;BMP180;10528;52.124;5.196;2023-05-10T12:39:44;101112.00;;;23.20
20736;BMP180;10528;52.124;5.196;2023-05-10T12:42:11;101118.00;;;23.10
20736;BMP180;10528;52.124;5.196;2023-05-10T12:44:39;101123.00;;;23.10
20736;BMP180;10528;52.124;5.196;2023-05-10T12:47:06;101136.00;;;23.00
20736;BMP180;10528;52.124;5.196;2023-05-10T12:49:33;101136.00;;;22.80
20736;BMP180;10528;52.124;5.196;2023-05-10T12:52:00;101142.00;;;22.60
20736;BMP180;10528;52.124;5.196;2023-05-10T12:54:27;101143.00;;;22.50
20736;BMP180;10528;52.124;5.196;2023-05-10T12:56:54;101139.00;;;22.30
20736;BMP180;10528;52.124;5.196;2023-05-10T12:59:21;101158.00;;;22.20
20736;BMP180;10528;52.124;5.196;2023-05-10T13:01:49;101157.00;;;22.10
20736;BMP180;10528;52.124;5.196;2023-05-10T13:04:16;101155.00;;;22.00
20736;BMP180;10528;52.124;5.196;2023-05-10T13:06:43;101158.00;;;21.90
20736;BMP180;10528;52.124;5.196;2023-05-10T13:09:10;101157.00;;;21.80
20736;BMP180;10528;52.124;5.196;2023-05-10T13:11:37;101155.00;;;21.70
20736;BMP180;10528;52.124;5.196;2023-05-10T13:14:04;101151.00;;;21.70
20736;BMP180;10528;52.124;5.196;2023-05-10T13:16:31;101155.00;;;21.60
20736;BMP180;10528;52.124;5.196;2023-05-10T13:18:58;101160.00;;;21.60
20736;BMP180;10528;52.124;5.196;2023-05-10T13:21:25;101167.00;;;21.50
20736;BMP180;10528;52.124;5.196;2023-05-10T13:23:53;101168.00;;;21.50
20736;BMP180;10528;52.124;5.196;2023-05-10T13:26:20;101166.00;;;21.50
20736;BMP180;10528;52.124;5.196;2023-05-10T13:28:46;101175.00;;;21.50
20736;BMP180;10528;52.124;5.196;2023-05-10T13:31:15;101180.00;;;21.50
20736;BMP180;10528;52.124;5.196;2023-05-10T13:33:42;101168.00;;;21.40
20736;BMP180;10528;52.124;5.196;2023-05-10T13:36:09;101171.00;;;21.40
20736;BMP180;10528;52.124;5.196;2023-05-10T13:38:35;101174.00;;;21.40
20736;BMP180;10528;52.124;5.196;2023-05-10T13:41:03;101170.00;;;21.40
20736;BMP180;10528;52.124;5.196;2023-05-10T13:43:30;101169.00;;;21.40
20736;BMP180;10528;52.124;5.196;2023-05-10T13:45:57;101176.00;;;21.40
20736;BMP180;10528;52.124;5.196;2023-05-10T13:48:24;101173.00;;;21.40
20736;BMP180;10528;52.124;5.196;2023-05-10T13:50:50;101175.00;;;21.40
20736;BMP180;10528;52.124;5.196;2023-05-10T13:53:17;101176.00;;;21.40
20736;BMP180;10528;52.124;5.196;2023-05-10T13:55:44;101180.00;;;21.50
20736;BMP180;10528;52.124;5.196;2023-05-10T13:58:11;101177.00;;;21.50
20736;BMP180;10528;52.124;5.196;2023-05-10T14:00:38;101170.00;;;21.50
20736;BMP180;10528;52.124;5.196;2023-05-10T14:03:04;101171.00;;;21.50
20736;BMP180;10528;52.124;5.196;2023-05-10T14:05:33;101170.00;;;21.50
20736;BMP180;10528;52.124;5.196;2023-05-10T14:07:59;101163.00;;;21.60
20736;BMP180;10528;52.124;5.196;2023-05-10T14:10:27;101168.00;;;21.60
20736;BMP180;10528;52.124;5.196;2023-05-10T14:12:53;101168.00;;;21.60
20736;BMP180;10528;52.124;5.196;2023-05-10T14:15:21;101156.00;;;21.60
20736;BMP180;10528;52.124;5.196;2023-05-10T14:17:47;101168.00;;;21.60
20736;BMP180;10528;52.124;5.196;2023-05-10T14:20:14;101168.00;;;21.60
20736;BMP180;10528;52.124;5.196;2023-05-10T14:22:41;101170.00;;;21.60
20736;BMP180;10528;52.124;5.196;2023-05-10T14:25:09;101167.00;;;21.60
20736;BMP180;10528;52.124;5.196;2023-05-10T14:27:35;101166.00;;;21.60
20736;BMP180;10528;52.124;5.196;2023-05-10T14:30:03;101160.00;;;21.70